VYMD/MDL METAR and TAF weather

Enter ICAO airport designator
Station Type Date Time Source
VYMD METAR 2021/09/24 04:30 UTC NOAA

VYMD 240430Z 36003KT 7000 BKN018 FEW020CB BKN100 29/25 Q1010


Station Type Date Time Source
VYMD Decoded METAR 2021/09/24 04:30 UTC NOAA

Station name not available
Sep 24, 2021 - 12:30 AM EDT / 2021.09.24 0430 UTC
Wind: from the N (360 degrees) at 3 MPH (3 KT):0
Visibility: 4 mile(s):0
Sky conditions: mostly cloudy
Weather: Cumulonimbus clouds observed
Temperature: 84 F (29 C)
Dew Point: 77 F (25 C)
Relative Humidity: 79%
Pressure (altimeter): 29.83 in. Hg (1010 hPa)
ob: VYMD 240430Z 36003KT 7000 BKN018 FEW020CB BKN100 29/25 Q1010
cycle: 4

Station Type Date Time Source
VYMD TAF 2021/09/23 18:00 UTC NOAA

TAF VYMD 231700Z 2318/2418 19003KT 7000 BKN020 FEW025CB
TEMPO 2318/2324 19009KT 5000 -TSRA BKN015 FEW018CB OVC090

Example: see airport list